WZZ335 LEBB-LIEO
Flight info
| Callsign | WZZ335 |
|---|---|
| Flight time | N/A |
| Altitude | 36000 |
| Route | PPN M601 CAVES DCT BCN DCT DIPES N725 OSPOK DCT NOLVI DCT ORKUM DCT ELSAG DCT ALG DCT MINKA |
| Aircraft | A320/M-SDE3FGHIRWY/LB1 |
Departure
| Time | 2026-04-28 16:35 |
|---|---|
| Airport | Bilbao Airport (LEBB) |
Arrival
| Time | N/A |
|---|---|
| Airport | Olbia Costa Smeralda Airport (LIEO) |
| Time | Latitude | Longitude | Altitude | Speed | Heading |
|---|---|---|---|---|---|
| 2026-04-28 16:30 | 43.30413 | -2.90842 | 132 ft | 0 kts | 91° |
| 2026-04-28 16:31 | 43.30413 | -2.90823 | 132 ft | 5 kts | 93° |
| 2026-04-28 16:31 | 43.30396 | -2.90756 | 132 ft | 10 kts | 115° |
| 2026-04-28 16:31 | 43.30354 | -2.90646 | 132 ft | 16 kts | 117° |
| 2026-04-28 16:31 | 43.30265 | -2.90537 | 132 ft | 18 kts | 146° |
| 2026-04-28 16:32 | 43.30201 | -2.90537 | 132 ft | 11 kts | 209° |
| 2026-04-28 16:32 | 43.30072 | -2.90449 | 132 ft | 16 kts | 117° |
| 2026-04-28 16:32 | 43.30016 | -2.90297 | 132 ft | 20 kts | 117° |
| 2026-04-28 16:33 | 43.29948 | -2.90115 | 132 ft | 23 kts | 117° |
| 2026-04-28 16:33 | 43.29897 | -2.89977 | 132 ft | 25 kts | 116° |
| 2026-04-28 16:33 | 43.29788 | -2.89673 | 132 ft | 25 kts | 116° |
| 2026-04-28 16:33 | 43.29695 | -2.89618 | 132 ft | 16 kts | 221° |
| 2026-04-28 16:34 | 43.29638 | -2.89758 | 132 ft | 18 kts | 273° |
| 2026-04-28 16:34 | 43.29692 | -2.89920 | 132 ft | 20 kts | 297° |
| 2026-04-28 16:34 | 43.29732 | -2.90029 | 132 ft | 4 kts | 296° |
| 2026-04-28 16:34 | 43.29804 | -2.90226 | 133 ft | 57 kts | 296° |
| 2026-04-28 16:35 | 43.30082 | -2.90988 | 127 ft | 118 kts | 297° |
| 2026-04-28 16:35 | 43.30518 | -2.92189 | 179 ft | 158 kts | 297° |
| 2026-04-28 16:35 | 43.31076 | -2.93517 | 686 ft | 162 kts | 299° |
| 2026-04-28 16:35 | 43.31599 | -2.94882 | 1350 ft | 161 kts | 295° |
| 2026-04-28 16:36 | 43.32110 | -2.96318 | 1719 ft | 177 kts | 295° |
| 2026-04-28 16:36 | 43.32753 | -2.97878 | 1962 ft | 200 kts | 312° |
| 2026-04-28 16:36 | 43.33902 | -2.99136 | 2316 ft | 219 kts | 320° |
| 2026-04-28 16:36 | 43.35057 | -3.00511 | 3092 ft | 221 kts | 316° |
| 2026-04-28 16:37 | 43.36185 | -3.01967 | 3882 ft | 223 kts | 315° |
| 2026-04-28 16:37 | 43.37314 | -3.03450 | 4662 ft | 226 kts | 315° |
| 2026-04-28 16:37 | 43.38459 | -3.04949 | 5434 ft | 228 kts | 316° |
| 2026-04-28 16:38 | 43.41214 | -3.07121 | 6612 ft | 252 kts | 3° |
| 2026-04-28 16:38 | 43.42854 | -3.06319 | 7289 ft | 260 kts | 40° |
| 2026-04-28 16:38 | 43.43891 | -3.04282 | 8065 ft | 263 kts | 71° |
| 2026-04-28 16:38 | 43.44356 | -3.01836 | 8861 ft | 266 kts | 75° |
| 2026-04-28 16:39 | 43.45152 | -2.99543 | 9600 ft | 270 kts | 52° |
| 2026-04-28 16:39 | 43.46445 | -2.97656 | 10377 ft | 272 kts | 41° |
| 2026-04-28 16:39 | 43.47879 | -2.95923 | 11130 ft | 275 kts | 41° |
| 2026-04-28 16:39 | 43.49312 | -2.94156 | 11849 ft | 278 kts | 47° |
| 2026-04-28 16:40 | 43.50377 | -2.91922 | 12537 ft | 282 kts | 69° |
| 2026-04-28 16:40 | 43.50788 | -2.89282 | 13087 ft | 290 kts | 89° |
| 2026-04-28 16:40 | 43.50424 | -2.86474 | 13389 ft | 307 kts | 112° |
| 2026-04-28 16:40 | 43.49255 | -2.83922 | 13540 ft | 327 kts | 132° |
| 2026-04-28 16:41 | 43.47681 | -2.81507 | 13663 ft | 349 kts | 133° |
| 2026-04-28 16:41 | 43.46006 | -2.78967 | 13791 ft | 368 kts | 133° |
| 2026-04-28 16:41 | 43.44239 | -2.76295 | 14008 ft | 384 kts | 133° |
| 2026-04-28 16:41 | 43.42424 | -2.73547 | 14483 ft | 390 kts | 133° |
| 2026-04-28 16:42 | 43.40591 | -2.70768 | 15029 ft | 394 kts | 133° |
| 2026-04-28 16:42 | 43.38743 | -2.67961 | 15576 ft | 397 kts | 132° |
| 2026-04-28 16:42 | 43.36886 | -2.65140 | 16117 ft | 400 kts | 132° |
| 2026-04-28 16:42 | 43.35010 | -2.62289 | 16644 ft | 403 kts | 132° |
| 2026-04-28 16:43 | 43.33125 | -2.59418 | 17172 ft | 406 kts | 132° |
| 2026-04-28 16:43 | 43.31217 | -2.56513 | 17708 ft | 410 kts | 132° |
| 2026-04-28 16:43 | 43.29298 | -2.53597 | 18224 ft | 413 kts | 132° |
| 2026-04-28 16:43 | 43.27361 | -2.50662 | 18729 ft | 416 kts | 133° |
| 2026-04-28 16:44 | 43.25408 | -2.47716 | 19232 ft | 419 kts | 133° |
| 2026-04-28 16:44 | 43.23411 | -2.44705 | 19734 ft | 422 kts | 133° |
| 2026-04-28 16:44 | 43.21424 | -2.41716 | 20229 ft | 425 kts | 133° |
| 2026-04-28 16:44 | 43.19422 | -2.38709 | 20691 ft | 428 kts | 133° |
| 2026-04-28 16:45 | 43.17412 | -2.35690 | 21130 ft | 431 kts | 133° |
| 2026-04-28 16:45 | 43.15380 | -2.32636 | 21553 ft | 434 kts | 133° |
| 2026-04-28 16:45 | 43.13339 | -2.29569 | 21959 ft | 436 kts | 133° |
| 2026-04-28 16:45 | 43.11292 | -2.26496 | 22349 ft | 439 kts | 133° |
| 2026-04-28 16:46 | 43.09225 | -2.23397 | 22729 ft | 442 kts | 133° |
| 2026-04-28 16:46 | 43.07147 | -2.20284 | 23105 ft | 444 kts | 133° |
| 2026-04-28 16:46 | 43.05060 | -2.17159 | 23472 ft | 447 kts | 133° |
| 2026-04-28 16:46 | 43.02956 | -2.14014 | 23830 ft | 449 kts | 133° |
| 2026-04-28 16:47 | 43.00840 | -2.10855 | 24185 ft | 452 kts | 133° |
| 2026-04-28 16:47 | 42.98712 | -2.07683 | 24542 ft | 454 kts | 133° |
| 2026-04-28 16:47 | 42.96566 | -2.04493 | 24891 ft | 456 kts | 133° |
| 2026-04-28 16:47 | 42.94409 | -2.01290 | 25234 ft | 459 kts | 133° |
| 2026-04-28 16:48 | 42.92243 | -1.98074 | 25568 ft | 461 kts | 133° |
| 2026-04-28 16:48 | 42.90777 | -1.95900 | 25826 ft | 461 kts | 133° |
| 2026-04-28 16:48 | 42.88609 | -1.92687 | 26299 ft | 460 kts | 133° |
| 2026-04-28 16:48 | 42.86437 | -1.89471 | 26772 ft | 459 kts | 133° |
| 2026-04-28 16:49 | 42.84273 | -1.86271 | 27239 ft | 458 kts | 133° |
| 2026-04-28 16:49 | 42.82141 | -1.83121 | 27687 ft | 457 kts | 133° |
| 2026-04-28 16:49 | 42.79986 | -1.79939 | 28136 ft | 456 kts | 133° |
| 2026-04-28 16:49 | 42.77829 | -1.76760 | 28594 ft | 455 kts | 133° |
| 2026-04-28 16:50 | 42.75679 | -1.73596 | 29038 ft | 455 kts | 133° |
| 2026-04-28 16:50 | 42.73696 | -1.70271 | 29466 ft | 454 kts | 124° |
| 2026-04-28 16:50 | 42.72094 | -1.66567 | 29894 ft | 454 kts | 116° |
| 2026-04-28 16:50 | 42.70746 | -1.62683 | 30325 ft | 453 kts | 115° |
| 2026-04-28 16:51 | 42.69396 | -1.58817 | 30756 ft | 452 kts | 116° |
| 2026-04-28 16:51 | 42.68039 | -1.54956 | 31178 ft | 451 kts | 116° |
| 2026-04-28 16:51 | 42.66684 | -1.51112 | 31594 ft | 451 kts | 116° |
| 2026-04-28 16:51 | 42.65313 | -1.47237 | 32007 ft | 450 kts | 116° |
| 2026-04-28 16:52 | 42.63952 | -1.43400 | 32421 ft | 449 kts | 116° |
| 2026-04-28 16:52 | 42.62596 | -1.39583 | 32834 ft | 448 kts | 116° |
| 2026-04-28 16:52 | 42.61242 | -1.35771 | 33234 ft | 448 kts | 116° |
| 2026-04-28 16:52 | 42.59891 | -1.31964 | 33603 ft | 448 kts | 116° |
| 2026-04-28 16:53 | 42.58553 | -1.28196 | 33983 ft | 448 kts | 116° |
| 2026-04-28 16:53 | 42.57185 | -1.24349 | 34372 ft | 447 kts | 116° |
| 2026-04-28 16:53 | 42.55838 | -1.20559 | 34744 ft | 446 kts | 116° |
| 2026-04-28 16:53 | 42.54486 | -1.16763 | 35084 ft | 446 kts | 116° |
| 2026-04-28 16:54 | 42.53140 | -1.12988 | 35431 ft | 445 kts | 116° |
| 2026-04-28 16:54 | 42.51785 | -1.09196 | 35759 ft | 444 kts | 116° |
| 2026-04-28 16:54 | 42.50443 | -1.05440 | 35970 ft | 445 kts | 116° |
| 2026-04-28 16:55 | 42.47745 | -0.97898 | 36008 ft | 444 kts | 116° |
| 2026-04-28 16:55 | 42.45043 | -0.90379 | 36011 ft | 444 kts | 116° |
| 2026-04-28 16:56 | 42.42335 | -0.82871 | 36009 ft | 444 kts | 116° |
| 2026-04-28 16:56 | 42.39624 | -0.75365 | 36009 ft | 444 kts | 116° |
| 2026-04-28 16:57 | 42.36903 | -0.67853 | 36008 ft | 444 kts | 116° |
| 2026-04-28 16:57 | 42.34180 | -0.60358 | 36009 ft | 444 kts | 116° |
| 2026-04-28 16:58 | 42.31448 | -0.52864 | 36008 ft | 444 kts | 116° |
| 2026-04-28 16:58 | 42.28708 | -0.45373 | 36007 ft | 444 kts | 116° |
| 2026-04-28 16:59 | 42.25974 | -0.37892 | 36011 ft | 444 kts | 116° |
| 2026-04-28 16:59 | 42.23247 | -0.30462 | 36009 ft | 444 kts | 117° |
| 2026-04-28 17:00 | 42.20493 | -0.22991 | 36009 ft | 444 kts | 117° |
| 2026-04-28 17:00 | 42.17739 | -0.15529 | 36008 ft | 444 kts | 117° |
| 2026-04-28 17:01 | 42.14967 | -0.08038 | 36008 ft | 444 kts | 117° |
| 2026-04-28 17:01 | 42.12203 | -0.00584 | 36009 ft | 444 kts | 117° |
| 2026-04-28 17:02 | 42.09455 | 0.06817 | 36009 ft | 445 kts | 117° |
| 2026-04-28 17:02 | 42.06681 | 0.14247 | 36009 ft | 445 kts | 117° |
| 2026-04-28 17:03 | 42.02487 | 0.25436 | 36009 ft | 445 kts | 117° |
| 2026-04-28 17:03 | 41.99700 | 0.32846 | 36011 ft | 445 kts | 117° |
| 2026-04-28 17:04 | 41.95475 | 0.44069 | 36010 ft | 456 kts | 117° |
| 2026-04-28 17:05 | 41.91154 | 0.55510 | 36009 ft | 459 kts | 117° |
| 2026-04-28 17:06 | 41.86817 | 0.66931 | 36012 ft | 459 kts | 117° |
| 2026-04-28 17:06 | 41.82455 | 0.78381 | 36012 ft | 459 kts | 117° |
| 2026-04-28 17:07 | 41.79535 | 0.86011 | 36013 ft | 459 kts | 117° |
| 2026-04-28 17:07 | 41.76613 | 0.93621 | 36015 ft | 460 kts | 117° |
| 2026-04-28 17:08 | 41.73684 | 1.01241 | 36019 ft | 460 kts | 117° |
| 2026-04-28 17:08 | 41.70765 | 1.08819 | 36021 ft | 460 kts | 117° |
| 2026-04-28 17:09 | 41.67832 | 1.16424 | 36023 ft | 460 kts | 117° |
| 2026-04-28 17:09 | 41.64890 | 1.24016 | 36023 ft | 460 kts | 117° |
| 2026-04-28 17:10 | 41.61945 | 1.31603 | 36022 ft | 460 kts | 117° |
| 2026-04-28 17:10 | 41.58986 | 1.39203 | 36022 ft | 460 kts | 118° |
| 2026-04-28 17:11 | 41.56023 | 1.46768 | 36022 ft | 460 kts | 118° |
| 2026-04-28 17:11 | 41.53053 | 1.54338 | 36021 ft | 460 kts | 118° |
| 2026-04-28 17:12 | 41.50105 | 1.61854 | 36020 ft | 460 kts | 118° |
| 2026-04-28 17:12 | 41.47134 | 1.69409 | 36021 ft | 460 kts | 118° |
| 2026-04-28 17:13 | 41.44154 | 1.76962 | 36020 ft | 460 kts | 118° |
| 2026-04-28 17:13 | 41.41170 | 1.84502 | 36020 ft | 460 kts | 118° |
| 2026-04-28 17:14 | 41.38189 | 1.92032 | 36019 ft | 460 kts | 118° |
| 2026-04-28 17:14 | 41.35197 | 1.99553 | 36019 ft | 460 kts | 118° |
| 2026-04-28 17:15 | 41.32197 | 2.07061 | 36018 ft | 460 kts | 118° |
| 2026-04-28 17:15 | 41.30010 | 2.15015 | 36017 ft | 460 kts | 102° |
| 2026-04-28 17:16 | 41.28671 | 2.23337 | 36013 ft | 460 kts | 102° |
| 2026-04-28 17:16 | 41.27295 | 2.31643 | 36013 ft | 460 kts | 103° |
| 2026-04-28 17:17 | 41.25908 | 2.39946 | 36013 ft | 460 kts | 103° |
| 2026-04-28 17:17 | 41.24516 | 2.48248 | 36014 ft | 460 kts | 103° |
| 2026-04-28 17:18 | 41.23120 | 2.56550 | 36014 ft | 460 kts | 103° |
| 2026-04-28 17:18 | 41.21726 | 2.64860 | 36014 ft | 460 kts | 103° |
| 2026-04-28 17:19 | 41.20332 | 2.73110 | 36014 ft | 460 kts | 103° |
| 2026-04-28 17:19 | 41.18920 | 2.81399 | 36014 ft | 460 kts | 103° |
| 2026-04-28 17:20 | 41.17742 | 2.88297 | 36014 ft | 460 kts | 103° |
| 2026-04-28 17:20 | 41.16083 | 2.97977 | 36014 ft | 460 kts | 103° |
| 2026-04-28 17:21 | 41.14656 | 3.06256 | 36015 ft | 460 kts | 103° |
| 2026-04-28 17:22 | 41.12503 | 3.18667 | 36015 ft | 460 kts | 103° |
| 2026-04-28 17:22 | 41.11061 | 3.26941 | 36016 ft | 460 kts | 103° |
| 2026-04-28 17:23 | 41.08893 | 3.39295 | 36017 ft | 460 kts | 103° |
| 2026-04-28 17:23 | 41.07440 | 3.47558 | 36017 ft | 460 kts | 103° |
| 2026-04-28 17:24 | 41.06213 | 3.54482 | 36017 ft | 461 kts | 103° |
| 2026-04-28 17:24 | 41.04743 | 3.62741 | 36017 ft | 461 kts | 103° |
| 2026-04-28 17:25 | 41.02540 | 3.75078 | 36018 ft | 461 kts | 103° |
| 2026-04-28 17:26 | 41.01058 | 3.83335 | 36019 ft | 461 kts | 103° |
| 2026-04-28 17:26 | 40.99569 | 3.91580 | 36020 ft | 461 kts | 104° |
| 2026-04-28 17:27 | 40.98065 | 3.99836 | 36021 ft | 461 kts | 104° |
| 2026-04-28 17:27 | 40.96557 | 4.08075 | 36021 ft | 461 kts | 104° |
| 2026-04-28 17:28 | 40.95041 | 4.16329 | 36021 ft | 461 kts | 104° |
| 2026-04-28 17:28 | 40.92766 | 4.28677 | 36021 ft | 461 kts | 104° |
| 2026-04-28 17:29 | 40.91237 | 4.36908 | 36020 ft | 461 kts | 104° |
| 2026-04-28 17:30 | 40.88948 | 4.49256 | 36020 ft | 461 kts | 104° |
| 2026-04-28 17:30 | 40.86646 | 4.61591 | 36020 ft | 461 kts | 104° |
| 2026-04-28 17:31 | 40.85017 | 4.74083 | 36017 ft | 461 kts | 97° |
| 2026-04-28 17:32 | 40.83862 | 4.86629 | 36017 ft | 461 kts | 97° |
| 2026-04-28 17:32 | 40.83069 | 4.95033 | 36017 ft | 461 kts | 97° |
| 2026-04-28 17:33 | 40.82267 | 5.03427 | 36017 ft | 461 kts | 97° |
| 2026-04-28 17:33 | 40.81599 | 5.10461 | 36017 ft | 461 kts | 97° |
| 2026-04-28 17:34 | 40.80673 | 5.20219 | 36017 ft | 461 kts | 97° |
| 2026-04-28 17:34 | 40.79862 | 5.28616 | 36017 ft | 461 kts | 97° |
| 2026-04-28 17:35 | 40.79046 | 5.37013 | 36016 ft | 461 kts | 97° |
| 2026-04-28 17:35 | 40.78224 | 5.45400 | 36016 ft | 461 kts | 97° |
| 2026-04-28 17:36 | 40.77396 | 5.53788 | 36016 ft | 461 kts | 98° |
| 2026-04-28 17:36 | 40.76565 | 5.62119 | 36016 ft | 461 kts | 98° |
| 2026-04-28 17:37 | 40.75727 | 5.70495 | 36015 ft | 461 kts | 98° |
| 2026-04-28 17:37 | 40.74883 | 5.78876 | 36015 ft | 461 kts | 98° |
| 2026-04-28 17:38 | 40.74032 | 5.87247 | 36014 ft | 461 kts | 98° |
| 2026-04-28 17:38 | 40.73166 | 5.95624 | 36014 ft | 461 kts | 98° |
| 2026-04-28 17:39 | 40.72300 | 6.03995 | 36014 ft | 461 kts | 98° |
| 2026-04-28 17:40 | 40.70995 | 6.16545 | 36014 ft | 461 kts | 98° |
| 2026-04-28 17:40 | 40.70110 | 6.24918 | 36014 ft | 461 kts | 98° |
| 2026-04-28 17:41 | 40.69223 | 6.33278 | 36014 ft | 461 kts | 98° |
| 2026-04-28 17:41 | 40.68329 | 6.41646 | 36014 ft | 461 kts | 98° |
| 2026-04-28 17:42 | 40.67437 | 6.49951 | 36015 ft | 461 kts | 98° |
| 2026-04-28 17:42 | 40.66532 | 6.58302 | 36015 ft | 461 kts | 98° |
| 2026-04-28 17:43 | 40.65618 | 6.66659 | 36016 ft | 461 kts | 98° |
| 2026-04-28 17:43 | 40.64702 | 6.75024 | 36015 ft | 461 kts | 98° |
| 2026-04-28 17:44 | 40.63788 | 6.83384 | 36016 ft | 461 kts | 98° |
| 2026-04-28 17:44 | 40.62855 | 6.91742 | 36016 ft | 461 kts | 98° |
| 2026-04-28 17:45 | 40.61913 | 7.00089 | 36017 ft | 461 kts | 98° |
| 2026-04-28 17:45 | 40.60973 | 7.08437 | 36017 ft | 461 kts | 98° |
| 2026-04-28 17:46 | 40.60026 | 7.16755 | 36017 ft | 461 kts | 99° |
| 2026-04-28 17:46 | 40.59077 | 7.25046 | 36018 ft | 461 kts | 99° |
| 2026-04-28 17:47 | 40.58116 | 7.33391 | 36018 ft | 461 kts | 99° |
| 2026-04-28 17:47 | 40.57151 | 7.41733 | 36018 ft | 461 kts | 99° |
| 2026-04-28 17:48 | 40.56598 | 7.50131 | 36018 ft | 461 kts | 87° |
| 2026-04-28 17:48 | 40.57287 | 7.58473 | 36017 ft | 461 kts | 83° |
| 2026-04-28 17:49 | 40.58015 | 7.66864 | 36017 ft | 462 kts | 84° |
| 2026-04-28 17:49 | 40.58728 | 7.75255 | 36017 ft | 462 kts | 84° |
| 2026-04-28 17:50 | 40.59445 | 7.83642 | 36017 ft | 462 kts | 84° |
| 2026-04-28 17:50 | 40.60145 | 7.91980 | 36017 ft | 462 kts | 84° |
| 2026-04-28 17:51 | 40.60841 | 8.00377 | 36017 ft | 462 kts | 84° |
| 2026-04-28 17:51 | 40.61538 | 8.08793 | 36018 ft | 462 kts | 84° |
| 2026-04-28 17:52 | 40.62228 | 8.17202 | 36017 ft | 462 kts | 84° |
| 2026-04-28 17:52 | 40.64414 | 8.29477 | 36030 ft | 460 kts | 67° |
| 2026-04-28 17:53 | 40.66877 | 8.37226 | 36036 ft | 457 kts | 68° |
| 2026-04-28 17:53 | 40.69301 | 8.44962 | 36035 ft | 455 kts | 68° |
| 2026-04-28 17:54 | 40.71706 | 8.52661 | 36032 ft | 454 kts | 68° |
| 2026-04-28 17:54 | 40.74092 | 8.60309 | 36029 ft | 453 kts | 68° |